Ocean Navigator — WSC2552 — position and weather

sailwx.info

Track history (hours):
 
Tides and Currents Weather Stations Pressure Air Temp Water Temp Dewpoint Dewpoint Depression Visibility Wind Speed Wind Dir Waves Ship Positions

Ocean Navigator

Owner: OCEAN NAVIGATOR INC, SEATTLE, WA. More information available from US FCC via Universal Licensing System and Coast Guard Vessel Documentation Center.

Last reported at 2017-Sep-20 00:00 UTC. Time now 2017-Sep-21 19:34 UTC.
Position N 59°24' W 143°06'.

Type: Tow > 200 m length. MMSI: 366358000.

Wind from 300 at 20 knots

Barometer 1013.3 mb
Air temperature 12.8 ° C
Visibility: greater than 5.4 NM

Date/timePositionNaut miles runAvg speedWind from/ knotsBaromVisibWave heightAir tempDewpointWater temp
2017-Sep-20 00:00N 59°24' W 143°06'231 7.3 300 / 201013.3 5.4 12.8
2017-Sep-18 16:22N 58°16' W 136°00'3 7.3
2017-Sep-18 16:00N 58°17' W 135°55'3 6.2
2017-Sep-18 15:26N 58°18' W 135°49'275 5.5
2017-Sep-16 13:36N 54°28' W 131°15'1 8.5
2017-Sep-16 13:30N 54°27' W 131°14'4 8.3
2017-Sep-16 13:00N 54°24' W 131°11'4 8.3
2017-Sep-16 12:30N 54°20' W 131°07'4 8.6
2017-Sep-16 12:00N 54°16' W 131°04'4 8.4
2017-Sep-16 11:30N 54°12' W 131°02'4 8.5
2017-Sep-16 11:00N 54°08' W 131°01'4 8.2
2017-Sep-16 10:30N 54°04' W 130°60'4 8.4
2017-Sep-16 10:00N 53°60' W 130°58'4 8.3
2017-Sep-16 09:31N 53°56' W 130°56'4 7.9
2017-Sep-16 09:00N 53°53' W 130°52'4 7.9
2017-Sep-16 08:30N 53°50' W 130°48'5 8.3
2017-Sep-16 07:52N 53°46' W 130°41'4 8.4
2017-Sep-16 07:26N 53°44' W 130°36'4 8.5
2017-Sep-16 07:00N 53°42' W 130°32'16 8.8
2017-Sep-16 05:13N 53°33' W 130°10'2 8.5
2017-Sep-16 04:59N 53°32' W 130°07'74 8.3
2017-Sep-15 20:02N 52°32' W 128°53'2 8.4
2017-Sep-15 19:48N 52°31' W 128°52'3 8.5
2017-Sep-15 19:30N 52°28' W 128°51'4 8.8
2017-Sep-15 19:00N 52°24' W 128°50'6 8.8
2017-Sep-15 18:22N 52°18' W 128°48'4 8.9
2017-Sep-15 17:55N 52°14' W 128°46'4 8.5
2017-Sep-15 17:30N 52°11' W 128°44'5 8.6
2017-Sep-15 16:58N 52°07' W 128°42'4 8.4
2017-Sep-15 16:30N 52°03' W 128°40'4 8.4
2017-Sep-15 16:00N 51°59' W 128°38'4 8.4
2017-Sep-15 15:30N 51°55' W 128°36'4 8.8
2017-Sep-15 15:00N 51°51' W 128°33'4 8.4
2017-Sep-15 14:30N 51°47' W 128°30'4 8.4
2017-Sep-15 14:00N 51°44' W 128°27'4 8.6
2017-Sep-15 13:30N 51°40' W 128°24'4 8.3
2017-Sep-15 13:00N 51°36' W 128°20'4 8.3
2017-Sep-15 12:30N 51°33' W 128°17'4 8.3
2017-Sep-15 12:00N 51°30' W 128°13'4 8.4
2017-Sep-15 11:30N 51°27' W 128°08'4 8.9
2017-Sep-15 11:00N 51°24' W 128°02'5 9.0
2017-Sep-15 10:30N 51°21' W 127°57'6 8.8
2017-Sep-15 09:51N 51°15' W 127°53'5 8.7
2017-Sep-15 09:18N 51°11' W 127°51'35 8.9
2017-Sep-15 05:22N 50°47' W 127°10'5 8.9
2017-Sep-15 04:49N 50°44' W 127°04'3 8.5
2017-Sep-15 04:27N 50°43' W 126°59'8 8.1
2017-Sep-15 03:29N 50°39' W 126°49'12 8.5
2017-Sep-15 02:04N 50°30' W 126°35'1 9.2
2017-Sep-15 01:59N 50°30' W 126°34'5 9.4
2017-Sep-15 01:27N 50°30' W 126°26'4 9.1
2017-Sep-15 01:00N 50°30' W 126°19'5 8.7
2017-Sep-15 00:26N 50°29' W 126°12'3010.0
2017-Sep-14 21:27N 50°20' W 125°27'4 8.8
2017-Sep-14 21:00N 50°17' W 125°24'4 7.9
2017-Sep-14 20:30N 50°13' W 125°23'4 7.4
2017-Sep-14 20:00N 50°09' W 125°22'3 5.5
2017-Sep-14 19:30N 50°07' W 125°19'3 6.3
2017-Sep-14 19:00N 50°05' W 125°16'3 5.6
2017-Sep-14 18:30N 50°02' W 125°14'2 4.6
2017-Sep-14 18:00N 50°00' W 125°12'2 3.8
2017-Sep-14 17:30N 49°59' W 125°11'3 6.6
2017-Sep-14 17:00N 49°57' W 125°07'4 8.6
2017-Sep-14 16:30N 49°54' W 125°01'4 8.6
2017-Sep-14 16:00N 49°51' W 124°56'4 8.4
2017-Sep-14 15:30N 49°49' W 124°51'4 8.1
2017-Sep-14 15:00N 49°46' W 124°46'4 8.2
2017-Sep-14 14:30N 49°43' W 124°41'4 8.3
2017-Sep-14 14:00N 49°41' W 124°36'4 8.4
2017-Sep-14 13:30N 49°38' W 124°32'4 8.6
2017-Sep-14 13:00N 49°35' W 124°26'4 8.5
2017-Sep-14 12:30N 49°33' W 124°21'4 8.8
2017-Sep-14 12:00N 49°32' W 124°14'4 8.1
2017-Sep-14 11:30N 49°29' W 124°09'4 8.5
2017-Sep-14 11:00N 49°26' W 124°04'4 7.9
2017-Sep-14 10:30N 49°24' W 123°60'4 7.4
2017-Sep-14 10:00N 49°22' W 123°55'4 8.1
2017-Sep-14 09:30N 49°19' W 123°50'4 7.6
2017-Sep-14 09:00N 49°17' W 123°46'4 7.5
2017-Sep-14 08:30N 49°15' W 123°41'4 7.7
2017-Sep-14 08:00N 49°12' W 123°36'4 8.3
2017-Sep-14 07:30N 49°10' W 123°31'4 8.4
2017-Sep-14 07:00N 49°07' W 123°26'4 8.1
2017-Sep-14 06:30N 49°05' W 123°22'4 8.0
2017-Sep-14 06:00N 49°02' W 123°17'4 8.4
2017-Sep-14 05:30N 48°59' W 123°13'4 8.4
2017-Sep-14 05:00N 48°56' W 123°08'4 7.9
2017-Sep-14 04:29N 48°53' W 123°03'4 8.2
2017-Sep-14 04:00N 48°51' W 122°59'4 7.9
2017-Sep-14 03:30N 48°49' W 122°54'4 7.4
2017-Sep-14 02:56N 48°46' W 122°48'4 8.6
2017-Sep-14 02:30N 48°44' W 122°44'4 8.0
2017-Sep-14 02:00N 48°40' W 122°43'4 8.1
2017-Sep-14 01:30N 48°36' W 122°45'4 8.1
2017-Sep-14 01:00N 48°32' W 122°45'4 8.4
2017-Sep-14 00:30N 48°28' W 122°44'4 8.5
2017-Sep-13 23:59N 48°23' W 122°44'17 8.1
2017-Sep-13 21:52N 48°07' W 122°39'510.3
2017-Sep-13 21:20N 48°02' W 122°37'310.1
2017-Sep-13 21:00N 47°59' W 122°34'510.0
2017-Sep-13 20:30N 47°55' W 122°29'5 9.4
2017-Sep-13 20:00N 47°51' W 122°27'5 9.1
2017-Sep-13 19:30N 47°46' W 122°26'5 9.3
2017-Sep-13 19:00N 47°42' W 122°27'4 8.6
2017-Sep-13 18:30N 47°37' W 122°25'3 5.6
2017-Sep-13 18:00N 47°36' W 122°22'2 3.8
2017-Sep-13 17:30N 47°37' W 122°24'4 7.6
2017-Sep-13 17:00N 47°41' W 122°25'1 1.9
2017-Sep-13 16:30N 47°40' W 122°24'1 2.9
2017-Sep-13 16:00N 47°39' W 122°22'0 0.0
2017-Sep-13 15:30N 47°39' W 122°22'0 0.0
2017-Sep-13 15:00N 47°39' W 122°22'  
Track history (hours):
 
Tides and Currents Weather Stations Pressure Air Temp Water Temp Dewpoint Dewpoint Depression Visibility Wind Speed Wind Dir Waves Ship Positions

Ocean Navigator

Owner: OCEAN NAVIGATOR INC, SEATTLE, WA. More information available from US FCC via Universal Licensing System and Coast Guard Vessel Documentation Center.

Last reported at 2017-Sep-20 00:00 UTC. Time now 2017-Sep-21 19:34 UTC.
Position N 59°24' W 143°06'.

Type: Tow > 200 m length. MMSI: 366358000.

Wind from 300 at 20 knots

Barometer 1013.3 mb
Air temperature 12.8 ° C
Visibility: greater than 5.4 NM

Date/timePositionNaut miles runAvg speedWind from/ knotsBaromVisibWave heightAir tempDewpointWater temp
2017-Sep-20 00:00N 59°24' W 143°06'231 7.3 300 / 201013.3 5.4 12.8
2017-Sep-18 16:22N 58°16' W 136°00'3 7.3
2017-Sep-18 16:00N 58°17' W 135°55'3 6.2
2017-Sep-18 15:26N 58°18' W 135°49'275 5.5
2017-Sep-16 13:36N 54°28' W 131°15'1 8.5
2017-Sep-16 13:30N 54°27' W 131°14'4 8.3
2017-Sep-16 13:00N 54°24' W 131°11'4 8.3
2017-Sep-16 12:30N 54°20' W 131°07'4 8.6
2017-Sep-16 12:00N 54°16' W 131°04'4 8.4
2017-Sep-16 11:30N 54°12' W 131°02'4 8.5
2017-Sep-16 11:00N 54°08' W 131°01'4 8.2
2017-Sep-16 10:30N 54°04' W 130°60'4 8.4
2017-Sep-16 10:00N 53°60' W 130°58'4 8.3
2017-Sep-16 09:31N 53°56' W 130°56'4 7.9
2017-Sep-16 09:00N 53°53' W 130°52'4 7.9
2017-Sep-16 08:30N 53°50' W 130°48'5 8.3
2017-Sep-16 07:52N 53°46' W 130°41'4 8.4
2017-Sep-16 07:26N 53°44' W 130°36'4 8.5
2017-Sep-16 07:00N 53°42' W 130°32'16 8.8
2017-Sep-16 05:13N 53°33' W 130°10'2 8.5
2017-Sep-16 04:59N 53°32' W 130°07'74 8.3
2017-Sep-15 20:02N 52°32' W 128°53'2 8.4
2017-Sep-15 19:48N 52°31' W 128°52'3 8.5
2017-Sep-15 19:30N 52°28' W 128°51'4 8.8
2017-Sep-15 19:00N 52°24' W 128°50'6 8.8
2017-Sep-15 18:22N 52°18' W 128°48'4 8.9
2017-Sep-15 17:55N 52°14' W 128°46'4 8.5
2017-Sep-15 17:30N 52°11' W 128°44'5 8.6
2017-Sep-15 16:58N 52°07' W 128°42'4 8.4
2017-Sep-15 16:30N 52°03' W 128°40'4 8.4
2017-Sep-15 16:00N 51°59' W 128°38'4 8.4
2017-Sep-15 15:30N 51°55' W 128°36'4 8.8
2017-Sep-15 15:00N 51°51' W 128°33'4 8.4
2017-Sep-15 14:30N 51°47' W 128°30'4 8.4
2017-Sep-15 14:00N 51°44' W 128°27'4 8.6
2017-Sep-15 13:30N 51°40' W 128°24'4 8.3
2017-Sep-15 13:00N 51°36' W 128°20'4 8.3
2017-Sep-15 12:30N 51°33' W 128°17'4 8.3
2017-Sep-15 12:00N 51°30' W 128°13'4 8.4
2017-Sep-15 11:30N 51°27' W 128°08'4 8.9
2017-Sep-15 11:00N 51°24' W 128°02'5 9.0
2017-Sep-15 10:30N 51°21' W 127°57'6 8.8
2017-Sep-15 09:51N 51°15' W 127°53'5 8.7
2017-Sep-15 09:18N 51°11' W 127°51'35 8.9
2017-Sep-15 05:22N 50°47' W 127°10'5 8.9
2017-Sep-15 04:49N 50°44' W 127°04'3 8.5
2017-Sep-15 04:27N 50°43' W 126°59'8 8.1
2017-Sep-15 03:29N 50°39' W 126°49'12 8.5
2017-Sep-15 02:04N 50°30' W 126°35'1 9.2
2017-Sep-15 01:59N 50°30' W 126°34'5 9.4
2017-Sep-15 01:27N 50°30' W 126°26'4 9.1
2017-Sep-15 01:00N 50°30' W 126°19'5 8.7
2017-Sep-15 00:26N 50°29' W 126°12'3010.0
2017-Sep-14 21:27N 50°20' W 125°27'4 8.8
2017-Sep-14 21:00N 50°17' W 125°24'4 7.9
2017-Sep-14 20:30N 50°13' W 125°23'4 7.4
2017-Sep-14 20:00N 50°09' W 125°22'3 5.5
2017-Sep-14 19:30N 50°07' W 125°19'3 6.3
2017-Sep-14 19:00N 50°05' W 125°16'3 5.6
2017-Sep-14 18:30N 50°02' W 125°14'2 4.6
2017-Sep-14 18:00N 50°00' W 125°12'2 3.8
2017-Sep-14 17:30N 49°59' W 125°11'3 6.6
2017-Sep-14 17:00N 49°57' W 125°07'4 8.6
2017-Sep-14 16:30N 49°54' W 125°01'4 8.6
2017-Sep-14 16:00N 49°51' W 124°56'4 8.4
2017-Sep-14 15:30N 49°49' W 124°51'4 8.1
2017-Sep-14 15:00N 49°46' W 124°46'4 8.2
2017-Sep-14 14:30N 49°43' W 124°41'4 8.3
2017-Sep-14 14:00N 49°41' W 124°36'4 8.4
2017-Sep-14 13:30N 49°38' W 124°32'4 8.6
2017-Sep-14 13:00N 49°35' W 124°26'4 8.5
2017-Sep-14 12:30N 49°33' W 124°21'4 8.8
2017-Sep-14 12:00N 49°32' W 124°14'4 8.1
2017-Sep-14 11:30N 49°29' W 124°09'4 8.5
2017-Sep-14 11:00N 49°26' W 124°04'4 7.9
2017-Sep-14 10:30N 49°24' W 123°60'4 7.4
2017-Sep-14 10:00N 49°22' W 123°55'4 8.1
2017-Sep-14 09:30N 49°19' W 123°50'4 7.6
2017-Sep-14 09:00N 49°17' W 123°46'4 7.5
2017-Sep-14 08:30N 49°15' W 123°41'4 7.7
2017-Sep-14 08:00N 49°12' W 123°36'4 8.3
2017-Sep-14 07:30N 49°10' W 123°31'4 8.4
2017-Sep-14 07:00N 49°07' W 123°26'4 8.1
2017-Sep-14 06:30N 49°05' W 123°22'4 8.0
2017-Sep-14 06:00N 49°02' W 123°17'4 8.4
2017-Sep-14 05:30N 48°59' W 123°13'4 8.4
2017-Sep-14 05:00N 48°56' W 123°08'4 7.9
2017-Sep-14 04:29N 48°53' W 123°03'4 8.2
2017-Sep-14 04:00N 48°51' W 122°59'4 7.9
2017-Sep-14 03:30N 48°49' W 122°54'4 7.4
2017-Sep-14 02:56N 48°46' W 122°48'4 8.6
2017-Sep-14 02:30N 48°44' W 122°44'4 8.0
2017-Sep-14 02:00N 48°40' W 122°43'4 8.1
2017-Sep-14 01:30N 48°36' W 122°45'4 8.1
2017-Sep-14 01:00N 48°32' W 122°45'4 8.4
2017-Sep-14 00:30N 48°28' W 122°44'4 8.5
2017-Sep-13 23:59N 48°23' W 122°44'17 8.1
2017-Sep-13 21:52N 48°07' W 122°39'510.3
2017-Sep-13 21:20N 48°02' W 122°37'310.1
2017-Sep-13 21:00N 47°59' W 122°34'510.0
2017-Sep-13 20:30N 47°55' W 122°29'5 9.4
2017-Sep-13 20:00N 47°51' W 122°27'5 9.1
2017-Sep-13 19:30N 47°46' W 122°26'5 9.3
2017-Sep-13 19:00N 47°42' W 122°27'4 8.6
2017-Sep-13 18:30N 47°37' W 122°25'3 5.6
2017-Sep-13 18:00N 47°36' W 122°22'2 3.8
2017-Sep-13 17:30N 47°37' W 122°24'4 7.6
2017-Sep-13 17:00N 47°41' W 122°25'1 1.9
2017-Sep-13 16:30N 47°40' W 122°24'1 2.9
2017-Sep-13 16:00N 47°39' W 122°22'0 0.0
2017-Sep-13 15:30N 47°39' W 122°22'0 0.0
2017-Sep-13 15:00N 47°39' W 122°22'  

Dump ship's entire track history